createdAt,value
2018-09-09T00:01:03.031Z,101885.12
2018-09-09T00:03:41.193Z,101882.95
2018-09-09T00:06:18.946Z,101885.58
2018-09-09T00:08:55.978Z,101881.19
2018-09-09T00:11:34.521Z,101888.24
2018-09-09T00:14:10.450Z,101886.47
2018-09-09T00:16:48.633Z,101889.11
2018-09-09T00:19:26.355Z,101890.02
2018-09-09T00:22:03.409Z,101892.66
2018-09-09T00:24:40.303Z,101890.89
2018-09-09T00:27:17.753Z,101883.41
2018-09-09T00:29:55.930Z,101893.98
2018-09-09T00:32:33.389Z,101889.59
2018-09-09T00:35:11.060Z,101889.12
2018-09-09T00:37:46.475Z,101888.25
2018-09-09T00:40:23.414Z,101891.80
2018-09-09T00:43:01.439Z,101886.08
2018-09-09T00:45:38.642Z,101886.50
2018-09-09T00:48:07.990Z,101887.39
2018-09-09T00:50:42.366Z,101890.04
2018-09-09T00:53:16.837Z,101883.42
2018-09-09T00:55:46.186Z,101883.88
2018-09-09T00:58:15.533Z,101880.78
2018-09-09T01:00:50.110Z,101885.63
2018-09-09T01:03:19.461Z,101889.15
2018-09-09T01:05:48.806Z,101884.73
2018-09-09T01:08:18.140Z,101890.89
2018-09-09T01:10:47.538Z,101884.75
2018-09-09T01:13:16.871Z,101884.72
2018-09-09T01:15:46.208Z,101888.27
2018-09-09T01:18:15.535Z,101878.98
2018-09-09T01:20:44.871Z,101891.75
2018-09-09T01:23:14.184Z,101888.24
2018-09-09T01:25:43.505Z,101893.08
2018-09-09T01:28:12.826Z,101890.44
2018-09-09T01:30:42.237Z,101898.37
2018-09-09T01:33:11.570Z,101895.27
2018-09-09T01:35:40.920Z,101891.77
2018-09-09T01:38:10.237Z,101894.83
2018-09-09T01:40:39.581Z,101896.16
2018-09-09T01:43:08.920Z,101893.97
2018-09-09T01:45:38.233Z,101892.64
2018-09-09T01:48:07.587Z,101894.84
2018-09-09T01:50:36.922Z,101897.48
2018-09-09T01:53:06.765Z,101890.85
2018-09-09T01:55:36.113Z,101890.86
2018-09-09T01:58:05.984Z,101889.51
2018-09-09T02:00:35.378Z,101881.58
2018-09-09T02:03:05.986Z,101891.71
2018-09-09T02:05:35.309Z,101897.00
2018-09-09T02:08:04.690Z,101892.17
2018-09-09T02:10:34.054Z,101892.14
2018-09-09T02:13:03.387Z,101895.66
2018-09-09T02:15:32.753Z,101891.27
2018-09-09T02:18:02.116Z,101889.92
2018-09-09T02:20:31.505Z,101891.25
2018-09-09T02:23:00.837Z,101893.44
2018-09-09T02:25:30.169Z,101888.16
2018-09-09T02:27:59.506Z,101896.97
2018-09-09T02:30:28.834Z,101896.52
2018-09-09T02:32:58.186Z,101896.52
2018-09-09T02:35:27.528Z,101892.98
2018-09-09T02:37:56.886Z,101885.50
2018-09-09T02:40:26.200Z,101885.84
2018-09-09T02:42:55.690Z,101891.59
2018-09-09T02:45:25.036Z,101883.65
2018-09-09T02:47:54.442Z,101886.30
2018-09-09T02:50:23.804Z,101886.33
2018-09-09T02:52:53.698Z,101885.00
2018-09-09T02:55:23.162Z,101878.84
2018-09-09T02:57:52.625Z,101879.73
2018-09-09T03:00:22.074Z,101883.70
2018-09-09T03:02:51.609Z,101887.22
2018-09-09T03:05:21.172Z,101896.05
2018-09-09T03:07:50.542Z,101898.25
2018-09-09T03:10:19.922Z,101898.24
2018-09-09T03:12:49.314Z,101904.44
2018-09-09T03:15:18.736Z,101899.56
2018-09-09T03:17:48.154Z,101896.05
2018-09-09T03:20:17.550Z,101896.50
2018-09-09T03:22:46.983Z,101893.44
2018-09-09T03:25:16.453Z,101890.33
2018-09-09T03:27:45.855Z,101896.07
2018-09-09T03:30:20.498Z,101898.30
2018-09-09T03:32:56.995Z,101899.61
2018-09-09T03:35:26.325Z,101895.20
2018-09-09T03:37:55.673Z,101900.48
2018-09-09T03:40:25.054Z,101898.73
2018-09-09T03:42:54.462Z,101901.80
2018-09-09T03:45:23.790Z,101899.61
2018-09-09T03:47:53.162Z,101897.39
2018-09-09T03:50:22.504Z,101890.80
2018-09-09T03:52:51.905Z,101892.58
2018-09-09T03:55:21.229Z,101900.05
2018-09-09T03:57:50.553Z,101896.54
2018-09-09T04:00:19.932Z,101895.64
2018-09-09T04:02:49.280Z,101893.45
2018-09-09T04:05:18.618Z,101890.80
2018-09-09T04:07:47.981Z,101894.77
2018-09-09T04:10:17.330Z,101903.60
2018-09-09T04:12:46.685Z,101904.47
2018-09-09T04:15:16.016Z,101911.53
2018-09-09T04:17:45.377Z,101911.52
2018-09-09T04:20:14.743Z,101909.33
2018-09-09T04:25:19.841Z,101914.20
2018-09-09T04:27:49.560Z,101917.26
2018-09-09T04:30:18.924Z,101908.45
2018-09-09T04:32:48.267Z,101915.52
2018-09-09T04:35:17.624Z,101919.93
2018-09-09T04:37:46.999Z,101922.12
2018-09-09T04:40:16.300Z,101917.72
2018-09-09T04:42:45.661Z,101920.81
2018-09-09T04:45:15.021Z,101919.52
2018-09-09T04:47:44.367Z,101920.83
2018-09-09T04:50:13.689Z,101921.73
2018-09-09T04:52:43.053Z,101919.95
2018-09-09T04:55:12.409Z,101920.39
2018-09-09T04:57:41.879Z,101920.41
2018-09-09T05:00:11.632Z,101919.11
2018-09-09T05:02:41.403Z,101915.59
2018-09-09T05:05:10.901Z,101931.89
2018-09-09T05:07:40.546Z,101934.09
2018-09-09T05:10:10.284Z,101931.44
2018-09-09T05:12:40.028Z,101927.94
2018-09-09T05:15:09.536Z,101929.23
2018-09-09T05:17:39.150Z,101925.72
2018-09-09T05:20:08.746Z,101930.12
2018-09-09T05:22:38.374Z,101931.45
2018-09-09T05:25:08.006Z,101929.69
2018-09-09T05:27:37.661Z,101934.97
2018-09-09T05:30:08.308Z,101940.68
2018-09-09T05:32:37.916Z,101947.75
2018-09-09T05:35:07.730Z,101946.38
2018-09-09T05:37:37.338Z,101955.19
2018-09-09T05:40:07.243Z,101957.38
2018-09-09T05:42:36.884Z,101964.42
2018-09-09T05:45:07.080Z,101966.16
2018-09-09T05:47:36.608Z,101969.27
2018-09-09T05:50:06.171Z,101969.27
2018-09-09T05:52:35.702Z,101973.23
2018-09-09T05:55:06.644Z,101980.27
2018-09-09T05:57:36.180Z,101982.05
2018-09-09T06:00:06.787Z,101984.23
2018-09-09T06:02:37.217Z,101984.22
2018-09-09T06:05:06.892Z,101982.46
2018-09-09T06:07:36.507Z,101981.12
2018-09-09T06:10:06.952Z,101984.62
2018-09-09T06:12:36.536Z,101983.28
2018-09-09T06:15:06.662Z,101985.92
2018-09-09T06:17:36.283Z,101983.23
2018-09-09T06:20:07.001Z,101984.55
2018-09-09T06:22:36.567Z,101986.28
2018-09-09T06:25:06.442Z,101990.20
2018-09-09T06:27:36.030Z,101983.95
2018-09-09T06:30:06.652Z,101985.22
2018-09-09T06:32:36.244Z,101982.96
2018-09-09T06:35:06.587Z,101979.86
2018-09-09T06:37:36.132Z,101982.92
2018-09-09T06:40:05.804Z,101979.79
2018-09-09T06:42:35.615Z,101971.77
2018-09-09T06:45:06.543Z,101965.94
2018-09-09T06:47:36.186Z,101960.56
2018-09-09T06:52:49.328Z,101957.91
2018-09-09T06:55:18.904Z,101958.70
2018-09-09T06:57:48.444Z,101957.31
2018-09-09T07:00:18.034Z,101972.27
2018-09-09T07:02:47.729Z,101975.23
2018-09-09T07:05:17.324Z,101968.34
2018-09-09T07:07:47.056Z,101972.97
2018-09-09T07:10:17.021Z,101978.09
2018-09-09T07:12:46.811Z,101981.22
2018-09-09T07:15:19.177Z,101985.70
2018-09-09T07:17:48.855Z,101983.63
2018-09-09T07:20:18.456Z,101993.89
2018-09-09T07:22:48.527Z,101993.91
2018-09-09T07:25:18.301Z,101996.48
2018-09-09T07:27:48.123Z,101995.46
2018-09-09T07:30:17.953Z,101992.24
2018-09-09T07:32:48.275Z,101994.55
2018-09-09T07:35:18.111Z,101991.49
2018-09-09T07:37:47.960Z,101998.53
2018-09-09T07:40:17.734Z,101996.63
2018-09-09T07:42:47.419Z,101999.86
2018-09-09T07:45:17.116Z,101989.16
2018-09-09T07:47:47.062Z,101998.34
2018-09-09T07:50:16.851Z,101994.41
2018-09-09T07:52:46.443Z,101999.47
2018-09-09T07:55:16.142Z,101996.63
2018-09-09T07:57:45.856Z,101998.55
2018-09-09T08:00:15.662Z,102000.55
2018-09-09T08:02:45.465Z,101998.13
2018-09-09T08:05:15.073Z,101998.48
2018-09-09T08:07:44.675Z,101996.13
2018-09-09T08:10:14.287Z,102004.14
2018-09-09T08:12:43.897Z,102000.63
2018-09-09T08:15:14.662Z,102007.72
2018-09-09T08:17:44.560Z,101999.83
2018-09-09T08:20:14.258Z,102003.39
2018-09-09T08:22:43.941Z,101999.37
2018-09-09T08:25:13.674Z,102005.70
2018-09-09T08:27:43.389Z,102001.30
2018-09-09T08:30:13.240Z,102004.30
2018-09-09T08:32:42.805Z,102007.67
2018-09-09T08:35:12.483Z,102007.62
2018-09-09T08:37:42.218Z,102004.58
2018-09-09T08:40:11.826Z,102004.52
2018-09-09T08:42:41.457Z,101995.13
2018-09-09T08:45:11.154Z,101999.59
2018-09-09T08:47:40.847Z,101990.59
2018-09-09T08:50:11.022Z,102001.41
2018-09-09T08:52:40.718Z,102009.26
2018-09-09T08:55:10.385Z,102006.09
2018-09-09T08:57:39.807Z,102009.06
2018-09-09T09:00:09.289Z,102010.50
2018-09-09T09:02:50.727Z,102005.63
2018-09-09T09:05:20.135Z,102004.55
2018-09-09T09:07:49.612Z,102005.48
2018-09-09T09:10:19.011Z,102000.55
2018-09-09T09:12:48.389Z,101995.14
2018-09-09T09:15:17.786Z,101986.75
2018-09-09T09:17:47.575Z,101980.96
2018-09-09T09:20:16.951Z,101979.09
2018-09-09T09:22:46.293Z,101979.63
2018-09-09T09:25:15.730Z,101975.25
2018-09-09T09:27:45.170Z,101977.66
2018-09-09T09:30:14.547Z,101984.30
2018-09-09T09:32:46.033Z,101988.53
2018-09-09T09:35:15.418Z,101987.24
2018-09-09T09:37:44.937Z,101993.07
2018-09-09T09:40:14.398Z,101999.16
2018-09-09T09:42:43.725Z,102002.26
2018-09-09T09:45:13.038Z,102001.03
2018-09-09T09:47:42.406Z,101996.76
2018-09-09T09:50:11.810Z,101991.27
2018-09-09T09:52:41.148Z,101993.61
2018-09-09T09:55:10.619Z,101994.25
2018-09-09T09:57:39.988Z,101998.34
2018-09-09T10:00:13.449Z,102000.58
2018-09-09T10:02:42.855Z,102004.28
2018-09-09T10:05:12.249Z,102005.39
2018-09-09T10:07:41.750Z,102000.02
2018-09-09T10:10:11.224Z,102000.42
2018-09-09T10:12:40.633Z,102000.48
2018-09-09T10:15:10.072Z,102011.52
2018-09-09T10:17:39.464Z,102003.75
2018-09-09T10:20:08.896Z,102007.91
2018-09-09T10:22:38.402Z,102005.96
2018-09-09T10:25:07.824Z,101997.09
2018-09-09T10:27:37.262Z,102006.52
2018-09-09T10:30:08.078Z,102006.39
2018-09-09T10:32:39.993Z,102000.28
2018-09-09T10:35:09.455Z,101999.22
2018-09-09T10:37:38.966Z,102009.84
2018-09-09T10:40:08.399Z,102008.20
2018-09-09T10:42:37.827Z,102011.56
2018-09-09T10:45:07.219Z,102011.26
2018-09-09T10:47:36.597Z,102009.23
2018-09-09T10:50:06.930Z,102011.41
2018-09-09T10:52:36.277Z,102012.22
2018-09-09T10:55:06.406Z,102011.92
2018-09-09T10:57:35.866Z,102011.95
2018-09-09T11:00:06.451Z,102016.37
2018-09-09T11:02:35.950Z,102018.00
2018-09-09T11:05:06.208Z,102019.05
2018-09-09T11:07:35.592Z,102010.66
2018-09-09T11:10:06.301Z,102014.34
2018-09-09T11:12:36.220Z,102010.96
2018-09-09T11:15:06.455Z,102020.00
2018-09-09T11:17:35.853Z,102019.05
2018-09-09T11:20:06.644Z,102019.61
2018-09-09T11:22:36.354Z,102022.64
2018-09-09T11:25:07.114Z,102022.59
2018-09-09T11:27:36.522Z,102021.82
2018-09-09T11:30:06.393Z,102024.48
2018-09-09T11:32:35.906Z,102024.24
2018-09-09T11:35:06.718Z,102021.70
2018-09-09T11:37:36.076Z,102018.97
2018-09-09T11:40:07.126Z,102019.06
2018-09-09T11:42:36.520Z,102017.67
2018-09-09T11:45:06.736Z,102012.45
2018-09-09T11:47:36.137Z,102010.75
2018-09-09T11:50:05.618Z,101999.55
2018-09-09T11:52:35.196Z,102004.66
2018-09-09T11:55:04.648Z,102010.45
2018-09-09T11:57:34.014Z,102014.20
2018-09-09T12:00:03.449Z,102014.00
2018-09-09T12:02:32.797Z,102009.30
2018-09-09T12:05:02.224Z,102012.59
2018-09-09T12:07:31.613Z,102009.45
2018-09-09T12:10:00.930Z,102009.42
2018-09-09T12:12:30.345Z,102006.38
2018-09-09T12:14:59.957Z,102000.13
2018-09-09T12:17:29.338Z,101987.91
2018-09-09T12:19:58.871Z,101996.30
2018-09-09T12:22:28.274Z,102003.19
2018-09-09T12:24:57.723Z,102005.02
2018-09-09T12:27:27.058Z,102006.03
2018-09-09T12:29:56.499Z,101998.31
2018-09-09T12:32:26.054Z,101995.67
2018-09-09T12:34:56.177Z,102004.69
2018-09-09T12:37:25.538Z,102002.15
2018-09-09T12:39:54.869Z,101996.84
2018-09-09T12:42:24.232Z,102000.48
2018-09-09T12:44:58.803Z,101998.30
2018-09-09T12:47:33.439Z,101996.66
2018-09-09T12:50:02.798Z,102003.19
2018-09-09T12:52:32.138Z,102006.66
2018-09-09T12:55:01.652Z,102000.33
2018-09-09T12:57:30.973Z,101993.47
2018-09-09T13:00:00.363Z,101999.94
2018-09-09T13:02:29.983Z,101994.91
2018-09-09T13:04:59.357Z,101998.44
2018-09-09T13:07:28.900Z,101997.78
2018-09-09T13:09:58.234Z,101998.16
2018-09-09T13:12:31.814Z,102000.86
2018-09-09T13:15:01.190Z,101999.23
2018-09-09T13:17:30.500Z,101996.09
2018-09-09T13:19:59.869Z,101994.95
2018-09-09T13:22:29.273Z,101992.84
2018-09-09T13:25:02.497Z,101995.69
2018-09-09T13:27:31.841Z,101993.34
2018-09-09T13:32:24.049Z,101983.63
2018-09-09T13:34:53.356Z,101989.16
2018-09-09T13:37:22.702Z,101984.53
2018-09-09T13:39:52.124Z,101983.66
2018-09-09T13:42:21.466Z,101987.53
2018-09-09T13:44:50.814Z,101978.13
2018-09-09T13:47:20.393Z,101982.40
2018-09-09T13:49:49.728Z,101978.91
2018-09-09T13:52:19.065Z,101985.00
2018-09-09T13:54:48.409Z,101987.77
2018-09-09T13:57:17.722Z,101981.52
2018-09-09T13:59:47.064Z,101987.02
2018-09-09T14:02:16.406Z,101985.55
2018-09-09T14:04:45.785Z,101987.84
2018-09-09T14:07:15.275Z,101994.74
2018-09-09T14:09:44.689Z,101991.69
2018-09-09T14:12:13.978Z,101985.65
2018-09-09T14:14:43.322Z,101991.49
2018-09-09T14:17:12.640Z,101988.68
2018-09-09T14:19:42.179Z,101991.75
2018-09-09T14:22:11.566Z,101992.71
2018-09-09T14:24:40.854Z,101991.81
2018-09-09T14:27:10.174Z,101986.91
2018-09-09T14:29:39.508Z,101990.34
2018-09-09T14:32:08.829Z,101995.42
2018-09-09T14:34:38.171Z,101990.53
2018-09-09T14:37:07.545Z,101994.66
2018-09-09T14:39:36.868Z,101990.11
2018-09-09T14:42:06.270Z,102003.58
2018-09-09T14:44:35.600Z,101991.72
2018-09-09T14:47:06.180Z,101991.30
2018-09-09T14:49:35.622Z,101990.61
2018-09-09T14:52:06.216Z,101989.77
2018-09-09T14:54:35.583Z,101989.78
2018-09-09T14:57:06.200Z,101990.84
2018-09-09T14:59:35.597Z,101994.05
2018-09-09T15:02:06.059Z,101983.56
2018-09-09T15:04:35.424Z,101977.09
2018-09-09T15:07:06.148Z,101983.55
2018-09-09T15:09:35.514Z,101985.31
2018-09-09T15:12:04.850Z,101983.44
2018-09-09T15:14:34.214Z,101983.72
2018-09-09T15:17:03.540Z,101979.58
2018-09-09T15:19:32.862Z,101976.61
2018-09-09T15:22:02.210Z,101985.14
2018-09-09T15:24:31.562Z,101978.74
2018-09-09T15:27:00.884Z,101975.27
2018-09-09T15:29:30.204Z,101981.53
2018-09-09T15:31:59.548Z,101983.67
2018-09-09T15:34:28.879Z,101976.95
2018-09-09T15:36:58.224Z,101972.78
2018-09-09T15:39:27.569Z,101976.17
2018-09-09T15:41:56.934Z,101969.84
2018-09-09T15:44:26.274Z,101973.32
2018-09-09T15:46:55.627Z,101977.27
2018-09-09T15:49:24.962Z,101976.46
2018-09-09T15:51:54.368Z,101978.63
2018-09-09T15:54:23.717Z,101970.89
2018-09-09T15:56:53.081Z,101971.92
2018-09-09T15:59:22.414Z,101970.78
2018-09-09T16:01:51.800Z,101968.83
2018-09-09T16:04:21.137Z,101971.25
2018-09-09T16:06:50.501Z,101966.18
2018-09-09T16:09:19.860Z,101971.59
2018-09-09T16:11:49.257Z,101961.36
2018-09-09T16:14:18.541Z,101964.45
2018-09-09T16:16:47.880Z,101962.48
2018-09-09T16:19:17.374Z,101964.87
2018-09-09T16:21:46.700Z,101960.60
2018-09-09T16:24:16.119Z,101963.02
2018-09-09T16:26:45.416Z,101961.73
2018-09-09T16:31:58.542Z,101967.51
2018-09-09T16:34:27.869Z,101955.36
2018-09-09T16:36:57.184Z,101958.84
2018-09-09T16:39:26.526Z,101958.84
2018-09-09T16:41:55.839Z,101955.02
2018-09-09T16:44:25.203Z,101952.41
2018-09-09T16:46:54.565Z,101957.28
2018-09-09T16:49:23.910Z,101953.27
2018-09-09T16:51:53.254Z,101951.27
2018-09-09T16:54:22.642Z,101946.84
2018-09-09T16:56:53.685Z,101946.58
2018-09-09T16:59:23.018Z,101944.88
2018-09-09T17:01:52.329Z,101943.13
2018-09-09T17:04:21.689Z,101952.65
2018-09-09T17:06:51.465Z,101946.45
2018-09-09T17:09:20.798Z,101944.92
2018-09-09T17:11:50.145Z,101939.30
2018-09-09T17:14:19.474Z,101935.45
2018-09-09T17:16:48.933Z,101936.19
2018-09-09T17:19:18.329Z,101946.52
2018-09-09T17:21:47.702Z,101949.09
2018-09-09T17:24:17.057Z,101942.23
2018-09-09T17:26:46.406Z,101942.03
2018-09-09T17:29:15.767Z,101942.80
2018-09-09T17:31:45.113Z,101940.81
2018-09-09T17:34:14.674Z,101942.64
2018-09-09T17:36:44.071Z,101936.94
2018-09-09T17:39:13.452Z,101931.98
2018-09-09T17:41:42.786Z,101942.10
2018-09-09T17:44:12.114Z,101941.78
2018-09-09T17:46:41.505Z,101945.30
2018-09-09T17:49:10.981Z,101943.46
2018-09-09T17:51:40.359Z,101947.43
2018-09-09T17:54:09.743Z,101946.80
2018-09-09T17:56:39.151Z,101951.03
2018-09-09T17:59:08.534Z,101949.38
2018-09-09T18:01:38.054Z,101947.11
2018-09-09T18:04:07.587Z,101945.67
2018-09-09T18:06:36.998Z,101942.79
2018-09-09T18:09:08.343Z,101949.61
2018-09-09T18:11:37.726Z,101953.16
2018-09-09T18:14:07.071Z,101944.91
2018-09-09T18:16:36.509Z,101950.61
2018-09-09T18:19:06.239Z,101946.94
2018-09-09T18:21:35.673Z,101950.43
2018-09-09T18:24:06.421Z,101951.16
2018-09-09T18:26:35.881Z,101958.13
2018-09-09T18:29:06.501Z,101953.05
2018-09-09T18:31:35.868Z,101955.53
2018-09-09T18:34:06.464Z,101950.01
2018-09-09T18:36:36.281Z,101948.45
2018-09-09T18:39:09.046Z,101950.36
2018-09-09T18:41:38.296Z,101951.94
2018-09-09T18:44:07.634Z,101941.48
2018-09-09T18:46:37.043Z,101946.16
2018-09-09T18:49:06.453Z,101949.50
2018-09-09T18:51:35.808Z,101943.02
2018-09-09T18:54:06.397Z,101943.19
2018-09-09T18:56:35.805Z,101936.66
2018-09-09T18:59:06.427Z,101933.38
2018-09-09T19:01:35.773Z,101934.14
2018-09-09T19:04:06.018Z,101940.69
2018-09-09T19:06:35.360Z,101944.98
2018-09-09T19:09:04.996Z,101946.62
2018-09-09T19:11:34.353Z,101944.22
2018-09-09T19:14:04.006Z,101944.02
2018-09-09T19:16:33.273Z,101947.84
2018-09-09T19:19:02.613Z,101955.11
2018-09-09T19:21:31.973Z,101952.67
2018-09-09T19:24:01.645Z,101951.05
2018-09-09T19:26:31.302Z,101947.64
2018-09-09T19:29:00.732Z,101946.91
2018-09-09T19:31:30.168Z,101947.51
2018-09-09T19:33:59.505Z,101945.90
2018-09-09T19:36:28.872Z,101934.88
2018-09-09T19:38:58.310Z,101945.20
2018-09-09T19:41:27.722Z,101938.24
2018-09-09T19:43:57.090Z,101939.22
2018-09-09T19:46:26.534Z,101940.16
2018-09-09T19:48:55.890Z,101946.44
2018-09-09T19:51:25.280Z,101942.92
2018-09-09T19:53:54.601Z,101944.26
2018-09-09T19:56:23.974Z,101938.09
2018-09-09T19:58:53.365Z,101942.56
2018-09-09T20:01:22.736Z,101933.33
2018-09-09T20:03:53.738Z,101932.94
2018-09-09T20:06:23.127Z,101933.37
2018-09-09T20:08:52.462Z,101927.64
2018-09-09T20:11:21.929Z,101924.48
2018-09-09T20:13:52.125Z,101920.90
2018-09-09T20:16:21.478Z,101914.69
2018-09-09T20:18:50.854Z,101913.76
2018-09-09T20:21:20.462Z,101911.58
2018-09-09T20:23:49.859Z,101918.22
2018-09-09T20:26:19.300Z,101915.55
2018-09-09T20:28:48.782Z,101911.16
2018-09-09T20:31:18.121Z,101920.01
2018-09-09T20:33:48.908Z,101916.02
2018-09-09T20:36:18.328Z,101917.80
2018-09-09T20:38:48.337Z,101920.88
2018-09-09T20:41:17.743Z,101919.56
2018-09-09T20:43:47.124Z,101922.67
2018-09-09T20:46:16.515Z,101916.96
2018-09-09T20:48:45.922Z,101920.05
2018-09-09T20:51:15.368Z,101912.06
2018-09-09T20:53:44.737Z,101905.84
2018-09-09T20:56:14.105Z,101912.53
2018-09-09T20:58:43.449Z,101905.43
2018-09-09T21:01:12.938Z,101911.66
2018-09-09T21:03:42.295Z,101914.73
2018-09-09T21:06:11.725Z,101913.39
2018-09-09T21:08:41.043Z,101908.52
2018-09-09T21:11:10.415Z,101911.16
2018-09-09T21:13:40.023Z,101908.44
2018-09-09T21:16:09.373Z,101904.87
2018-09-09T21:18:38.862Z,101909.28
2018-09-09T21:21:10.252Z,101903.08
2018-09-09T21:23:39.703Z,101906.23
2018-09-09T21:26:09.088Z,101904.92
2018-09-09T21:28:38.430Z,101904.08
2018-09-09T21:31:07.778Z,101908.09
2018-09-09T21:33:37.118Z,101909.45
2018-09-09T21:36:06.982Z,101902.39
2018-09-09T21:38:36.378Z,101904.22
2018-09-09T21:41:06.077Z,101893.55
2018-09-09T21:43:35.406Z,101898.90
2018-09-09T21:46:05.986Z,101894.91
2018-09-09T21:48:35.409Z,101892.27
2018-09-09T21:51:04.749Z,101892.75
2018-09-09T21:53:34.120Z,101895.00
2018-09-09T21:56:03.450Z,101887.14
2018-09-09T21:58:32.753Z,101885.02
2018-09-09T22:01:07.226Z,101888.63
2018-09-09T22:03:36.534Z,101890.00
2018-09-09T22:06:06.088Z,101896.67
2018-09-09T22:08:35.457Z,101889.16
2018-09-09T22:11:06.059Z,101884.36
2018-09-09T22:13:35.477Z,101895.44
2018-09-09T22:16:04.823Z,101890.17
2018-09-09T22:18:34.185Z,101895.52
2018-09-09T22:21:03.528Z,101890.21
2018-09-09T22:23:32.920Z,101895.53
2018-09-09T22:26:02.229Z,101882.70
2018-09-09T22:28:31.576Z,101888.94
2018-09-09T22:31:00.939Z,101886.27
2018-09-09T22:33:30.284Z,101896.91
2018-09-09T22:35:59.653Z,101894.27
2018-09-09T22:38:29.002Z,101895.23
2018-09-09T22:40:58.349Z,101891.80
2018-09-09T22:43:27.655Z,101894.58
2018-09-09T22:45:59.749Z,101897.33
2018-09-09T22:48:29.571Z,101897.02
2018-09-09T22:50:58.922Z,101897.52
2018-09-09T22:53:28.254Z,101896.33
2018-09-09T22:55:57.748Z,101897.74
2018-09-09T22:58:27.273Z,101896.08
2018-09-09T23:00:56.618Z,101892.13
2018-09-09T23:03:25.927Z,101893.08
2018-09-09T23:06:03.182Z,101894.01
2018-09-09T23:08:39.660Z,101892.35
2018-09-09T23:11:16.980Z,101899.02
2018-09-09T23:13:55.149Z,101888.45
2018-09-09T23:16:33.117Z,101883.63
2018-09-09T23:19:07.164Z,101892.94
2018-09-09T23:21:42.382Z,101895.64
2018-09-09T23:24:20.316Z,101897.00
2018-09-09T23:26:57.523Z,101893.08
2018-09-09T23:29:36.312Z,101894.03
2018-09-09T23:32:14.626Z,101892.30
2018-09-09T23:34:52.873Z,101896.78
2018-09-09T23:37:31.758Z,101893.30
2018-09-09T23:40:11.650Z,101896.44
2018-09-09T23:42:50.320Z,101893.80
2018-09-09T23:45:29.114Z,101892.94
2018-09-09T23:50:34.929Z,101879.31
2018-09-09T23:53:13.129Z,101885.05
2018-09-09T23:55:51.095Z,101894.41
2018-09-09T23:58:28.562Z,101897.08
